sensor_id;sensor_type;location;lat;lon;timestamp;P1;durP1;ratioP1;P2;durP2;ratioP2
45420;SDS011;55462;47.042;8.292;2023-04-06T00:00:08;5.20;;;4.70;;
45420;SDS011;55462;47.042;8.292;2023-04-06T00:02:34;5.13;;;4.63;;
45420;SDS011;55462;47.042;8.292;2023-04-06T00:04:59;5.07;;;4.67;;
45420;SDS011;55462;47.042;8.292;2023-04-06T00:07:25;5.07;;;4.60;;
45420;SDS011;55462;47.042;8.292;2023-04-06T00:09:51;4.80;;;3.70;;
45420;SDS011;55462;47.042;8.292;2023-04-06T00:12:16;4.87;;;4.47;;
45420;SDS011;55462;47.042;8.292;2023-04-06T00:14:41;5.73;;;4.57;;
45420;SDS011;55462;47.042;8.292;2023-04-06T00:17:07;4.90;;;4.40;;
45420;SDS011;55462;47.042;8.292;2023-04-06T00:19:33;4.77;;;4.13;;
45420;SDS011;55462;47.042;8.292;2023-04-06T00:21:58;6.37;;;5.10;;
45420;SDS011;55462;47.042;8.292;2023-04-06T00:24:23;4.97;;;4.53;;
45420;SDS011;55462;47.042;8.292;2023-04-06T00:26:49;4.90;;;4.50;;
45420;SDS011;55462;47.042;8.292;2023-04-06T00:29:14;5.07;;;4.57;;
45420;SDS011;55462;47.042;8.292;2023-04-06T00:31:40;5.53;;;4.60;;
45420;SDS011;55462;47.042;8.292;2023-04-06T00:34:05;5.47;;;4.83;;
45420;SDS011;55462;47.042;8.292;2023-04-06T00:36:31;5.00;;;4.40;;
45420;SDS011;55462;47.042;8.292;2023-04-06T00:38:56;5.27;;;4.67;;
45420;SDS011;55462;47.042;8.292;2023-04-06T00:41:22;5.20;;;4.47;;
45420;SDS011;55462;47.042;8.292;2023-04-06T00:43:47;5.27;;;4.77;;
45420;SDS011;55462;47.042;8.292;2023-04-06T00:46:12;4.70;;;4.30;;
45420;SDS011;55462;47.042;8.292;2023-04-06T00:48:38;6.73;;;4.40;;
45420;SDS011;55462;47.042;8.292;2023-04-06T00:51:04;5.00;;;4.23;;
45420;SDS011;55462;47.042;8.292;2023-04-06T00:53:29;4.83;;;4.40;;
45420;SDS011;55462;47.042;8.292;2023-04-06T00:55:55;6.47;;;4.40;;
45420;SDS011;55462;47.042;8.292;2023-04-06T00:58:20;6.13;;;4.60;;
45420;SDS011;55462;47.042;8.292;2023-04-06T01:00:45;5.23;;;4.20;;
45420;SDS011;55462;47.042;8.292;2023-04-06T01:03:11;4.60;;;4.20;;
45420;SDS011;55462;47.042;8.292;2023-04-06T01:05:36;5.53;;;4.40;;
45420;SDS011;55462;47.042;8.292;2023-04-06T01:08:05;4.27;;;3.90;;
45420;SDS011;55462;47.042;8.292;2023-04-06T01:10:31;4.57;;;3.93;;
45420;SDS011;55462;47.042;8.292;2023-04-06T01:12:57;4.67;;;4.03;;
45420;SDS011;55462;47.042;8.292;2023-04-06T01:15:22;4.37;;;3.97;;
45420;SDS011;55462;47.042;8.292;2023-04-06T01:17:48;5.80;;;4.33;;
45420;SDS011;55462;47.042;8.292;2023-04-06T01:20:14;4.87;;;4.33;;
45420;SDS011;55462;47.042;8.292;2023-04-06T01:22:40;5.67;;;5.00;;
45420;SDS011;55462;47.042;8.292;2023-04-06T01:25:05;5.20;;;4.70;;
45420;SDS011;55462;47.042;8.292;2023-04-06T01:27:31;5.67;;;5.13;;
45420;SDS011;55462;47.042;8.292;2023-04-06T01:29:57;4.83;;;4.43;;
45420;SDS011;55462;47.042;8.292;2023-04-06T01:32:22;6.73;;;4.60;;
45420;SDS011;55462;47.042;8.292;2023-04-06T01:34:48;5.10;;;4.70;;
45420;SDS011;55462;47.042;8.292;2023-04-06T01:37:13;5.43;;;4.60;;
45420;SDS011;55462;47.042;8.292;2023-04-06T01:39:38;5.17;;;4.67;;
45420;SDS011;55462;47.042;8.292;2023-04-06T01:42:04;5.83;;;4.70;;
45420;SDS011;55462;47.042;8.292;2023-04-06T01:44:30;5.40;;;4.87;;
45420;SDS011;55462;47.042;8.292;2023-04-06T01:46:55;5.20;;;4.70;;
45420;SDS011;55462;47.042;8.292;2023-04-06T01:49:21;4.80;;;4.30;;
45420;SDS011;55462;47.042;8.292;2023-04-06T01:51:47;4.53;;;4.13;;
45420;SDS011;55462;47.042;8.292;2023-04-06T01:54:12;5.83;;;4.67;;
45420;SDS011;55462;47.042;8.292;2023-04-06T01:56:37;4.87;;;4.47;;
45420;SDS011;55462;47.042;8.292;2023-04-06T01:59:03;6.13;;;4.60;;
45420;SDS011;55462;47.042;8.292;2023-04-06T02:01:28;6.17;;;4.80;;
45420;SDS011;55462;47.042;8.292;2023-04-06T02:03:53;5.90;;;4.93;;
45420;SDS011;55462;47.042;8.292;2023-04-06T02:06:19;5.67;;;5.00;;
45420;SDS011;55462;47.042;8.292;2023-04-06T02:08:44;6.00;;;5.50;;
45420;SDS011;55462;47.042;8.292;2023-04-06T02:11:10;7.47;;;5.30;;
45420;SDS011;55462;47.042;8.292;2023-04-06T02:13:35;5.17;;;4.67;;
45420;SDS011;55462;47.042;8.292;2023-04-06T02:16:00;6.53;;;4.73;;
45420;SDS011;55462;47.042;8.292;2023-04-06T02:18:27;4.90;;;4.50;;
45420;SDS011;55462;47.042;8.292;2023-04-06T02:20:53;5.33;;;4.77;;
45420;SDS011;55462;47.042;8.292;2023-04-06T02:23:18;5.47;;;5.03;;
45420;SDS011;55462;47.042;8.292;2023-04-06T02:25:44;4.67;;;4.20;;
45420;SDS011;55462;47.042;8.292;2023-04-06T02:28:09;5.13;;;4.63;;
45420;SDS011;55462;47.042;8.292;2023-04-06T02:30:35;5.53;;;5.00;;
45420;SDS011;55462;47.042;8.292;2023-04-06T02:33:00;5.43;;;4.93;;
45420;SDS011;55462;47.042;8.292;2023-04-06T02:35:27;5.27;;;4.77;;
45420;SDS011;55462;47.042;8.292;2023-04-06T02:37:53;3.87;;;3.57;;
45420;SDS011;55462;47.042;8.292;2023-04-06T02:40:19;4.57;;;4.17;;
45420;SDS011;55462;47.042;8.292;2023-04-06T02:42:44;4.37;;;3.93;;
45420;SDS011;55462;47.042;8.292;2023-04-06T02:45:10;4.30;;;3.90;;
45420;SDS011;55462;47.042;8.292;2023-04-06T02:47:35;5.07;;;4.57;;
45420;SDS011;55462;47.042;8.292;2023-04-06T02:50:00;4.07;;;3.77;;
45420;SDS011;55462;47.042;8.292;2023-04-06T02:52:26;4.40;;;4.00;;
45420;SDS011;55462;47.042;8.292;2023-04-06T02:54:52;5.00;;;4.60;;
45420;SDS011;55462;47.042;8.292;2023-04-06T02:57:17;4.97;;;4.07;;
45420;SDS011;55462;47.042;8.292;2023-04-06T02:59:42;4.93;;;4.43;;
45420;SDS011;55462;47.042;8.292;2023-04-06T03:02:08;4.83;;;4.43;;
45420;SDS011;55462;47.042;8.292;2023-04-06T03:04:33;4.23;;;3.83;;
45420;SDS011;55462;47.042;8.292;2023-04-06T03:06:59;4.87;;;4.37;;
45420;SDS011;55462;47.042;8.292;2023-04-06T03:09:24;5.80;;;4.17;;
45420;SDS011;55462;47.042;8.292;2023-04-06T03:11:49;4.70;;;4.30;;
45420;SDS011;55462;47.042;8.292;2023-04-06T03:14:14;4.47;;;4.07;;
45420;SDS011;55462;47.042;8.292;2023-04-06T03:16:42;4.60;;;4.20;;
45420;SDS011;55462;47.042;8.292;2023-04-06T03:19:07;5.27;;;4.10;;
45420;SDS011;55462;47.042;8.292;2023-04-06T03:21:33;4.97;;;4.47;;
45420;SDS011;55462;47.042;8.292;2023-04-06T03:23:58;4.60;;;4.20;;
45420;SDS011;55462;47.042;8.292;2023-04-06T03:26:23;6.43;;;4.80;;
45420;SDS011;55462;47.042;8.292;2023-04-06T03:28:48;4.57;;;4.27;;
45420;SDS011;55462;47.042;8.292;2023-04-06T03:31:14;6.03;;;5.17;;
45420;SDS011;55462;47.042;8.292;2023-04-06T03:33:39;5.37;;;4.90;;
45420;SDS011;55462;47.042;8.292;2023-04-06T03:36:05;5.40;;;4.80;;
45420;SDS011;55462;47.042;8.292;2023-04-06T03:38:31;5.50;;;5.00;;
45420;SDS011;55462;47.042;8.292;2023-04-06T03:40:57;5.60;;;5.10;;
45420;SDS011;55462;47.042;8.292;2023-04-06T03:43:22;5.37;;;4.87;;
45420;SDS011;55462;47.042;8.292;2023-04-06T03:45:47;5.50;;;4.97;;
45420;SDS011;55462;47.042;8.292;2023-04-06T03:48:13;5.87;;;5.40;;
45420;SDS011;55462;47.042;8.292;2023-04-06T03:50:38;8.47;;;5.37;;
45420;SDS011;55462;47.042;8.292;2023-04-06T03:53:04;5.93;;;5.23;;
45420;SDS011;55462;47.042;8.292;2023-04-06T03:55:29;7.17;;;5.67;;
45420;SDS011;55462;47.042;8.292;2023-04-06T03:57:55;6.60;;;5.63;;
45420;SDS011;55462;47.042;8.292;2023-04-06T04:00:20;6.10;;;5.50;;
45420;SDS011;55462;47.042;8.292;2023-04-06T04:02:45;6.67;;;5.67;;
45420;SDS011;55462;47.042;8.292;2023-04-06T04:05:11;5.63;;;5.13;;
45420;SDS011;55462;47.042;8.292;2023-04-06T04:07:36;6.87;;;5.13;;
45420;SDS011;55462;47.042;8.292;2023-04-06T04:10:01;4.93;;;4.43;;
45420;SDS011;55462;47.042;8.292;2023-04-06T04:12:27;5.30;;;4.60;;
45420;SDS011;55462;47.042;8.292;2023-04-06T04:14:52;6.03;;;5.10;;
45420;SDS011;55462;47.042;8.292;2023-04-06T04:17:18;6.83;;;5.47;;
45420;SDS011;55462;47.042;8.292;2023-04-06T04:19:43;5.40;;;4.90;;
45420;SDS011;55462;47.042;8.292;2023-04-06T04:22:08;5.10;;;4.47;;
45420;SDS011;55462;47.042;8.292;2023-04-06T04:24:34;5.57;;;5.10;;
45420;SDS011;55462;47.042;8.292;2023-04-06T04:26:59;5.83;;;5.00;;
45420;SDS011;55462;47.042;8.292;2023-04-06T04:29:27;5.43;;;4.93;;
45420;SDS011;55462;47.042;8.292;2023-04-06T04:31:53;6.33;;;4.80;;
45420;SDS011;55462;47.042;8.292;2023-04-06T04:34:18;5.97;;;5.37;;
45420;SDS011;55462;47.042;8.292;2023-04-06T04:36:48;5.43;;;4.93;;
45420;SDS011;55462;47.042;8.292;2023-04-06T04:39:14;5.50;;;4.97;;
45420;SDS011;55462;47.042;8.292;2023-04-06T04:41:39;4.97;;;4.53;;
45420;SDS011;55462;47.042;8.292;2023-04-06T04:44:05;6.07;;;4.90;;
45420;SDS011;55462;47.042;8.292;2023-04-06T04:46:30;4.30;;;4.00;;
45420;SDS011;55462;47.042;8.292;2023-04-06T04:48:55;4.63;;;4.07;;
45420;SDS011;55462;47.042;8.292;2023-04-06T04:51:21;4.97;;;4.47;;
45420;SDS011;55462;47.042;8.292;2023-04-06T04:53:46;5.17;;;4.60;;
45420;SDS011;55462;47.042;8.292;2023-04-06T04:56:12;6.90;;;4.53;;
45420;SDS011;55462;47.042;8.292;2023-04-06T04:58:37;4.77;;;4.30;;
45420;SDS011;55462;47.042;8.292;2023-04-06T05:01:02;5.63;;;4.50;;
45420;SDS011;55462;47.042;8.292;2023-04-06T05:03:28;6.13;;;4.80;;
45420;SDS011;55462;47.042;8.292;2023-04-06T05:05:53;4.93;;;4.23;;
45420;SDS011;55462;47.042;8.292;2023-04-06T05:08:18;6.27;;;4.63;;
45420;SDS011;55462;47.042;8.292;2023-04-06T05:10:45;5.43;;;4.93;;
45420;SDS011;55462;47.042;8.292;2023-04-06T05:13:11;5.33;;;4.83;;
45420;SDS011;55462;47.042;8.292;2023-04-06T05:15:37;6.50;;;4.40;;
45420;SDS011;55462;47.042;8.292;2023-04-06T05:18:05;6.73;;;4.40;;
45420;SDS011;55462;47.042;8.292;2023-04-06T05:20:31;5.93;;;4.33;;
45420;SDS011;55462;47.042;8.292;2023-04-06T05:22:57;5.27;;;4.77;;
45420;SDS011;55462;47.042;8.292;2023-04-06T05:25:22;5.83;;;4.43;;
45420;SDS011;55462;47.042;8.292;2023-04-06T05:27:47;6.07;;;4.87;;
45420;SDS011;55462;47.042;8.292;2023-04-06T05:30:13;5.07;;;4.57;;
45420;SDS011;55462;47.042;8.292;2023-04-06T05:32:38;4.77;;;4.37;;
45420;SDS011;55462;47.042;8.292;2023-04-06T05:35:04;4.73;;;4.23;;
45420;SDS011;55462;47.042;8.292;2023-04-06T05:37:30;4.93;;;4.40;;
45420;SDS011;55462;47.042;8.292;2023-04-06T05:39:55;5.00;;;4.60;;
45420;SDS011;55462;47.042;8.292;2023-04-06T05:42:21;5.50;;;5.00;;
45420;SDS011;55462;47.042;8.292;2023-04-06T05:44:47;4.80;;;4.43;;
45420;SDS011;55462;47.042;8.292;2023-04-06T05:47:12;7.13;;;4.53;;
45420;SDS011;55462;47.042;8.292;2023-04-06T05:49:38;5.17;;;4.67;;
45420;SDS011;55462;47.042;8.292;2023-04-06T05:52:03;5.27;;;4.77;;
45420;SDS011;55462;47.042;8.292;2023-04-06T05:54:29;5.77;;;4.90;;
45420;SDS011;55462;47.042;8.292;2023-04-06T05:56:54;9.43;;;5.37;;
45420;SDS011;55462;47.042;8.292;2023-04-06T05:59:20;10.43;;;5.63;;
45420;SDS011;55462;47.042;8.292;2023-04-06T06:01:45;8.07;;;5.00;;
45420;SDS011;55462;47.042;8.292;2023-04-06T06:04:11;16.23;;;6.63;;
45420;SDS011;55462;47.042;8.292;2023-04-06T06:06:36;10.40;;;5.67;;
45420;SDS011;55462;47.042;8.292;2023-04-06T06:09:01;9.00;;;5.77;;
45420;SDS011;55462;47.042;8.292;2023-04-06T06:11:28;6.53;;;5.77;;
45420;SDS011;55462;47.042;8.292;2023-04-06T06:13:54;6.00;;;4.93;;
45420;SDS011;55462;47.042;8.292;2023-04-06T06:16:20;6.73;;;5.47;;
45420;SDS011;55462;47.042;8.292;2023-04-06T06:18:45;8.53;;;4.87;;
45420;SDS011;55462;47.042;8.292;2023-04-06T06:21:11;12.43;;;6.30;;
45420;SDS011;55462;47.042;8.292;2023-04-06T06:23:37;13.83;;;6.83;;
45420;SDS011;55462;47.042;8.292;2023-04-06T06:26:03;13.07;;;6.37;;
45420;SDS011;55462;47.042;8.292;2023-04-06T06:28:29;20.40;;;6.80;;
45420;SDS011;55462;47.042;8.292;2023-04-06T06:30:54;23.13;;;7.40;;
45420;SDS011;55462;47.042;8.292;2023-04-06T06:33:20;15.87;;;7.00;;
45420;SDS011;55462;47.042;8.292;2023-04-06T06:35:45;17.27;;;6.63;;
45420;SDS011;55462;47.042;8.292;2023-04-06T06:38:10;11.70;;;5.77;;
45420;SDS011;55462;47.042;8.292;2023-04-06T06:40:36;8.80;;;5.70;;
45420;SDS011;55462;47.042;8.292;2023-04-06T06:43:01;6.37;;;5.67;;
45420;SDS011;55462;47.042;8.292;2023-04-06T06:45:27;15.03;;;10.00;;
45420;SDS011;55462;47.042;8.292;2023-04-06T06:47:54;18.50;;;8.40;;
45420;SDS011;55462;47.042;8.292;2023-04-06T06:50:19;17.70;;;7.27;;
45420;SDS011;55462;47.042;8.292;2023-04-06T06:52:45;5.70;;;5.20;;
45420;SDS011;55462;47.042;8.292;2023-04-06T06:55:10;7.77;;;5.40;;
45420;SDS011;55462;47.042;8.292;2023-04-06T06:57:36;6.63;;;5.00;;
45420;SDS011;55462;47.042;8.292;2023-04-06T07:00:01;5.20;;;4.27;;
45420;SDS011;55462;47.042;8.292;2023-04-06T07:02:28;7.43;;;4.50;;
45420;SDS011;55462;47.042;8.292;2023-04-06T07:04:53;6.33;;;5.10;;
45420;SDS011;55462;47.042;8.292;2023-04-06T07:07:18;6.93;;;4.77;;
45420;SDS011;55462;47.042;8.292;2023-04-06T07:09:44;6.63;;;5.07;;
45420;SDS011;55462;47.042;8.292;2023-04-06T07:12:10;5.90;;;4.43;;
45420;SDS011;55462;47.042;8.292;2023-04-06T07:14:35;5.20;;;4.70;;
45420;SDS011;55462;47.042;8.292;2023-04-06T07:17:01;4.97;;;4.50;;
45420;SDS011;55462;47.042;8.292;2023-04-06T07:19:27;6.13;;;4.57;;
45420;SDS011;55462;47.042;8.292;2023-04-06T07:21:52;7.87;;;5.23;;
45420;SDS011;55462;47.042;8.292;2023-04-06T07:24:17;5.03;;;4.57;;
45420;SDS011;55462;47.042;8.292;2023-04-06T07:26:43;5.03;;;4.57;;
45420;SDS011;55462;47.042;8.292;2023-04-06T07:29:08;5.90;;;4.60;;
45420;SDS011;55462;47.042;8.292;2023-04-06T07:31:33;10.07;;;5.23;;
45420;SDS011;55462;47.042;8.292;2023-04-06T07:34:00;5.53;;;4.87;;
45420;SDS011;55462;47.042;8.292;2023-04-06T07:36:25;6.37;;;4.80;;
45420;SDS011;55462;47.042;8.292;2023-04-06T07:38:51;6.40;;;5.30;;
45420;SDS011;55462;47.042;8.292;2023-04-06T07:41:16;5.83;;;4.83;;
45420;SDS011;55462;47.042;8.292;2023-04-06T07:43:42;4.87;;;4.37;;
45420;SDS011;55462;47.042;8.292;2023-04-06T07:46:07;10.57;;;5.17;;
45420;SDS011;55462;47.042;8.292;2023-04-06T07:48:32;5.23;;;4.73;;
45420;SDS011;55462;47.042;8.292;2023-04-06T07:51:04;7.10;;;5.13;;
45420;SDS011;55462;47.042;8.292;2023-04-06T07:53:30;5.60;;;5.10;;
45420;SDS011;55462;47.042;8.292;2023-04-06T07:55:55;5.40;;;4.90;;
45420;SDS011;55462;47.042;8.292;2023-04-06T07:58:21;7.17;;;5.40;;
45420;SDS011;55462;47.042;8.292;2023-04-06T08:00:47;6.90;;;5.07;;
45420;SDS011;55462;47.042;8.292;2023-04-06T08:03:12;6.97;;;5.30;;
45420;SDS011;55462;47.042;8.292;2023-04-06T08:05:37;5.60;;;5.07;;
45420;SDS011;55462;47.042;8.292;2023-04-06T08:08:03;6.50;;;5.43;;
45420;SDS011;55462;47.042;8.292;2023-04-06T08:10:28;5.50;;;5.10;;
45420;SDS011;55462;47.042;8.292;2023-04-06T08:12:53;5.20;;;4.70;;
45420;SDS011;55462;47.042;8.292;2023-04-06T08:15:19;5.80;;;4.78;;
45420;SDS011;55462;47.042;8.292;2023-04-06T08:17:44;5.20;;;4.80;;
45420;SDS011;55462;47.042;8.292;2023-04-06T08:20:10;8.43;;;5.40;;
45420;SDS011;55462;47.042;8.292;2023-04-06T08:22:35;5.23;;;4.73;;
45420;SDS011;55462;47.042;8.292;2023-04-06T08:25:01;5.88;;;5.38;;
45420;SDS011;55462;47.042;8.292;2023-04-06T08:27:26;6.90;;;4.77;;
45420;SDS011;55462;47.042;8.292;2023-04-06T08:29:51;6.28;;;5.00;;
45420;SDS011;55462;47.042;8.292;2023-04-06T08:32:17;6.50;;;4.90;;
45420;SDS011;55462;47.042;8.292;2023-04-06T08:34:42;5.55;;;5.00;;
45420;SDS011;55462;47.042;8.292;2023-04-06T08:37:07;7.15;;;5.63;;
45420;SDS011;55462;47.042;8.292;2023-04-06T08:39:33;5.47;;;4.97;;
45420;SDS011;55462;47.042;8.292;2023-04-06T08:41:58;5.68;;;5.15;;
45420;SDS011;55462;47.042;8.292;2023-04-06T08:44:27;6.00;;;5.40;;
45420;SDS011;55462;47.042;8.292;2023-04-06T08:46:53;8.27;;;5.65;;
45420;SDS011;55462;47.042;8.292;2023-04-06T08:49:19;6.13;;;5.53;;
45420;SDS011;55462;47.042;8.292;2023-04-06T08:51:44;8.60;;;5.53;;
45420;SDS011;55462;47.042;8.292;2023-04-06T08:54:10;5.53;;;5.03;;
45420;SDS011;55462;47.042;8.292;2023-04-06T08:56:39;7.05;;;5.50;;
45420;SDS011;55462;47.042;8.292;2023-04-06T08:59:04;5.90;;;5.30;;
45420;SDS011;55462;47.042;8.292;2023-04-06T09:01:31;6.82;;;5.95;;
45420;SDS011;55462;47.042;8.292;2023-04-06T09:03:59;6.60;;;6.00;;
45420;SDS011;55462;47.042;8.292;2023-04-06T09:06:30;9.10;;;5.60;;
45420;SDS011;55462;47.042;8.292;2023-04-06T09:08:56;8.77;;;6.07;;
45420;SDS011;55462;47.042;8.292;2023-04-06T09:11:21;6.00;;;5.50;;
45420;SDS011;55462;47.042;8.292;2023-04-06T09:13:48;6.20;;;5.38;;
45420;SDS011;55462;47.042;8.292;2023-04-06T09:16:14;7.43;;;6.10;;
45420;SDS011;55462;47.042;8.292;2023-04-06T09:18:40;6.55;;;5.97;;
45420;SDS011;55462;47.042;8.292;2023-04-06T09:21:06;6.13;;;5.53;;
45420;SDS011;55462;47.042;8.292;2023-04-06T09:23:32;6.18;;;5.57;;
45420;SDS011;55462;47.042;8.292;2023-04-06T09:26:05;8.70;;;5.95;;
45420;SDS011;55462;47.042;8.292;2023-04-06T09:28:44;10.48;;;6.25;;
45420;SDS011;55462;47.042;8.292;2023-04-06T09:31:10;7.80;;;6.05;;
45420;SDS011;55462;47.042;8.292;2023-04-06T09:33:37;6.70;;;6.10;;
45420;SDS011;55462;47.042;8.292;2023-04-06T09:36:04;7.28;;;6.00;;
45420;SDS011;55462;47.042;8.292;2023-04-06T09:38:30;6.78;;;6.07;;
45420;SDS011;55462;47.042;8.292;2023-04-06T09:40:55;9.10;;;6.72;;
45420;SDS011;55462;47.042;8.292;2023-04-06T09:43:26;8.07;;;5.85;;
45420;SDS011;55462;47.042;8.292;2023-04-06T09:45:53;6.35;;;5.85;;
45420;SDS011;55462;47.042;8.292;2023-04-06T09:48:20;6.93;;;6.32;;
45420;SDS011;55462;47.042;8.292;2023-04-06T09:50:49;7.05;;;5.97;;
45420;SDS011;55462;47.042;8.292;2023-04-06T09:53:16;7.15;;;6.07;;
45420;SDS011;55462;47.042;8.292;2023-04-06T09:55:44;7.18;;;6.47;;
45420;SDS011;55462;47.042;8.292;2023-04-06T09:58:12;8.02;;;7.25;;
45420;SDS011;55462;47.042;8.292;2023-04-06T10:03:56;9.10;;;6.32;;
45420;SDS011;55462;47.042;8.292;2023-04-06T10:06:38;7.05;;;6.38;;
45420;SDS011;55462;47.042;8.292;2023-04-06T10:09:04;7.97;;;6.60;;
45420;SDS011;55462;47.042;8.292;2023-04-06T10:11:32;8.35;;;7.15;;
45420;SDS011;55462;47.042;8.292;2023-04-06T10:13:58;7.78;;;6.97;;
45420;SDS011;55462;47.042;8.292;2023-04-06T10:16:24;8.35;;;7.55;;
45420;SDS011;55462;47.042;8.292;2023-04-06T10:18:52;9.02;;;7.72;;
45420;SDS011;55462;47.042;8.292;2023-04-06T10:21:21;10.75;;;7.65;;
45420;SDS011;55462;47.042;8.292;2023-04-06T10:23:51;9.25;;;7.95;;
45420;SDS011;55462;47.042;8.292;2023-04-06T10:26:19;9.07;;;8.07;;
45420;SDS011;55462;47.042;8.292;2023-04-06T10:28:46;7.18;;;6.47;;
45420;SDS011;55462;47.042;8.292;2023-04-06T10:31:12;7.18;;;6.47;;
45420;SDS011;55462;47.042;8.292;2023-04-06T10:33:37;6.45;;;5.85;;
45420;SDS011;55462;47.042;8.292;2023-04-06T10:38:38;7.15;;;6.07;;
45420;SDS011;55462;47.042;8.292;2023-04-06T10:41:04;6.57;;;5.97;;
45420;SDS011;55462;47.042;8.292;2023-04-06T10:43:33;7.32;;;6.63;;
45420;SDS011;55462;47.042;8.292;2023-04-06T10:46:00;7.13;;;6.50;;
45420;SDS011;55462;47.042;8.292;2023-04-06T10:48:39;6.72;;;6.13;;
45420;SDS011;55462;47.042;8.292;2023-04-06T10:51:10;7.00;;;6.35;;
45420;SDS011;55462;47.042;8.292;2023-04-06T10:53:35;7.57;;;6.30;;
45420;SDS011;55462;47.042;8.292;2023-04-06T10:56:01;7.90;;;7.07;;
45420;SDS011;55462;47.042;8.292;2023-04-06T10:58:27;7.80;;;7.00;;
45420;SDS011;55462;47.042;8.292;2023-04-06T11:00:53;7.38;;;6.70;;
45420;SDS011;55462;47.042;8.292;2023-04-06T11:03:20;7.30;;;6.60;;
45420;SDS011;55462;47.042;8.292;2023-04-06T11:05:48;7.53;;;6.82;;
45420;SDS011;55462;47.042;8.292;2023-04-06T11:08:25;8.02;;;7.22;;
45420;SDS011;55462;47.042;8.292;2023-04-06T11:10:51;7.28;;;6.60;;
45420;SDS011;55462;47.042;8.292;2023-04-06T11:13:16;7.25;;;6.63;;
45420;SDS011;55462;47.042;8.292;2023-04-06T11:15:42;7.63;;;6.93;;
45420;SDS011;55462;47.042;8.292;2023-04-06T11:18:07;7.35;;;6.63;;
45420;SDS011;55462;47.042;8.292;2023-04-06T11:20:33;7.95;;;7.18;;
45420;SDS011;55462;47.042;8.292;2023-04-06T11:22:58;7.47;;;6.78;;
45420;SDS011;55462;47.042;8.292;2023-04-06T11:25:24;7.65;;;6.95;;
45420;SDS011;55462;47.042;8.292;2023-04-06T11:27:51;7.88;;;7.20;;
45420;SDS011;55462;47.042;8.292;2023-04-06T11:30:17;9.32;;;6.85;;
45420;SDS011;55462;47.042;8.292;2023-04-06T11:32:43;7.80;;;7.10;;
45420;SDS011;55462;47.042;8.292;2023-04-06T11:35:19;7.32;;;6.60;;
45420;SDS011;55462;47.042;8.292;2023-04-06T11:37:46;8.60;;;7.30;;
45420;SDS011;55462;47.042;8.292;2023-04-06T11:40:11;7.70;;;6.95;;
45420;SDS011;55462;47.042;8.292;2023-04-06T11:42:36;8.05;;;6.95;;
45420;SDS011;55462;47.042;8.292;2023-04-06T11:45:02;7.35;;;6.65;;
45420;SDS011;55462;47.042;8.292;2023-04-06T11:47:37;8.32;;;6.65;;
45420;SDS011;55462;47.042;8.292;2023-04-06T11:50:09;7.55;;;6.85;;
45420;SDS011;55462;47.042;8.292;2023-04-06T11:52:36;9.45;;;6.82;;
45420;SDS011;55462;47.042;8.292;2023-04-06T11:55:10;7.80;;;6.45;;
45420;SDS011;55462;47.042;8.292;2023-04-06T11:57:39;6.72;;;6.13;;
45420;SDS011;55462;47.042;8.292;2023-04-06T12:00:05;6.70;;;6.10;;
45420;SDS011;55462;47.042;8.292;2023-04-06T12:02:31;8.45;;;6.13;;
45420;SDS011;55462;47.042;8.292;2023-04-06T12:04:57;7.95;;;7.18;;
45420;SDS011;55462;47.042;8.292;2023-04-06T12:07:22;7.13;;;6.43;;
45420;SDS011;55462;47.042;8.292;2023-04-06T12:09:48;7.10;;;6.50;;
45420;SDS011;55462;47.042;8.292;2023-04-06T12:12:13;6.95;;;6.25;;
45420;SDS011;55462;47.042;8.292;2023-04-06T12:14:38;7.25;;;6.63;;
45420;SDS011;55462;47.042;8.292;2023-04-06T12:17:04;6.15;;;5.65;;
45420;SDS011;55462;47.042;8.292;2023-04-06T12:19:29;6.68;;;6.15;;
45420;SDS011;55462;47.042;8.292;2023-04-06T12:21:54;6.25;;;5.68;;
45420;SDS011;55462;47.042;8.292;2023-04-06T12:24:21;6.80;;;6.20;;
45420;SDS011;55462;47.042;8.292;2023-04-06T12:26:46;6.10;;;5.60;;
45420;SDS011;55462;47.042;8.292;2023-04-06T12:29:12;6.13;;;5.63;;
45420;SDS011;55462;47.042;8.292;2023-04-06T12:31:38;6.30;;;5.70;;
45420;SDS011;55462;47.042;8.292;2023-04-06T12:34:05;5.80;;;5.30;;
45420;SDS011;55462;47.042;8.292;2023-04-06T12:36:31;6.38;;;5.78;;
45420;SDS011;55462;47.042;8.292;2023-04-06T12:38:57;6.07;;;5.47;;
45420;SDS011;55462;47.042;8.292;2023-04-06T12:41:22;5.55;;;5.15;;
45420;SDS011;55462;47.042;8.292;2023-04-06T12:43:48;5.88;;;5.13;;
45420;SDS011;55462;47.042;8.292;2023-04-06T12:46:14;5.63;;;5.10;;
45420;SDS011;55462;47.042;8.292;2023-04-06T12:48:40;5.40;;;4.93;;
45420;SDS011;55462;47.042;8.292;2023-04-06T12:51:05;5.05;;;4.65;;
45420;SDS011;55462;47.042;8.292;2023-04-06T12:53:31;5.95;;;4.78;;
45420;SDS011;55462;47.042;8.292;2023-04-06T12:55:57;5.07;;;4.68;;
45420;SDS011;55462;47.042;8.292;2023-04-06T12:58:23;5.28;;;4.78;;
45420;SDS011;55462;47.042;8.292;2023-04-06T13:00:49;4.82;;;4.35;;
45420;SDS011;55462;47.042;8.292;2023-04-06T13:03:15;5.13;;;4.57;;
45420;SDS011;55462;47.042;8.292;2023-04-06T13:05:44;4.93;;;4.53;;
45420;SDS011;55462;47.042;8.292;2023-04-06T13:08:10;4.45;;;4.03;;
45420;SDS011;55462;47.042;8.292;2023-04-06T13:10:36;5.18;;;4.40;;
45420;SDS011;55462;47.042;8.292;2023-04-06T13:13:01;4.60;;;4.07;;
45420;SDS011;55462;47.042;8.292;2023-04-06T13:15:27;4.28;;;3.90;;
45420;SDS011;55462;47.042;8.292;2023-04-06T13:17:52;5.10;;;4.60;;
45420;SDS011;55462;47.042;8.292;2023-04-06T13:20:18;7.95;;;4.63;;
45420;SDS011;55462;47.042;8.292;2023-04-06T13:22:43;4.10;;;3.72;;
45420;SDS011;55462;47.042;8.292;2023-04-06T13:25:08;4.40;;;4.00;;
45420;SDS011;55462;47.042;8.292;2023-04-06T13:27:34;4.40;;;4.00;;
45420;SDS011;55462;47.042;8.292;2023-04-06T13:30:01;4.47;;;4.18;;
45420;SDS011;55462;47.042;8.292;2023-04-06T13:32:27;4.10;;;3.80;;
45420;SDS011;55462;47.042;8.292;2023-04-06T13:34:56;4.90;;;3.88;;
45420;SDS011;55462;47.042;8.292;2023-04-06T13:37:22;4.43;;;4.03;;
45420;SDS011;55462;47.042;8.292;2023-04-06T13:39:47;3.97;;;3.67;;
45420;SDS011;55462;47.042;8.292;2023-04-06T13:42:12;3.20;;;3.00;;
45420;SDS011;55462;47.042;8.292;2023-04-06T13:44:38;3.95;;;3.50;;
45420;SDS011;55462;47.042;8.292;2023-04-06T13:47:03;3.95;;;3.55;;
45420;SDS011;55462;47.042;8.292;2023-04-06T13:49:28;3.20;;;3.00;;
45420;SDS011;55462;47.042;8.292;2023-04-06T13:51:54;2.97;;;2.78;;
45420;SDS011;55462;47.042;8.292;2023-04-06T13:54:19;4.47;;;3.08;;
45420;SDS011;55462;47.042;8.292;2023-04-06T13:56:45;3.13;;;2.92;;
45420;SDS011;55462;47.042;8.292;2023-04-06T13:59:10;3.75;;;3.45;;
45420;SDS011;55462;47.042;8.292;2023-04-06T14:01:36;4.40;;;3.40;;
45420;SDS011;55462;47.042;8.292;2023-04-06T14:04:02;3.78;;;3.38;;
45420;SDS011;55462;47.042;8.292;2023-04-06T14:06:27;3.55;;;3.28;;
45420;SDS011;55462;47.042;8.292;2023-04-06T14:08:53;5.40;;;3.20;;
45420;SDS011;55462;47.042;8.292;2023-04-06T14:11:18;3.10;;;2.90;;
45420;SDS011;55462;47.042;8.292;2023-04-06T14:13:43;4.47;;;3.38;;
45420;SDS011;55462;47.042;8.292;2023-04-06T14:16:08;4.05;;;3.65;;
45420;SDS011;55462;47.042;8.292;2023-04-06T14:18:36;4.10;;;3.70;;
45420;SDS011;55462;47.042;8.292;2023-04-06T14:21:01;3.92;;;3.35;;
45420;SDS011;55462;47.042;8.292;2023-04-06T14:23:27;3.35;;;3.05;;
45420;SDS011;55462;47.042;8.292;2023-04-06T14:26:02;4.15;;;3.67;;
45420;SDS011;55462;47.042;8.292;2023-04-06T14:28:28;4.03;;;3.63;;
45420;SDS011;55462;47.042;8.292;2023-04-06T14:30:54;4.65;;;3.47;;
45420;SDS011;55462;47.042;8.292;2023-04-06T14:33:19;6.97;;;4.40;;
45420;SDS011;55462;47.042;8.292;2023-04-06T14:35:45;4.00;;;3.70;;
45420;SDS011;55462;47.042;8.292;2023-04-06T14:38:10;4.93;;;4.00;;
45420;SDS011;55462;47.042;8.292;2023-04-06T14:40:35;4.90;;;4.25;;
45420;SDS011;55462;47.042;8.292;2023-04-06T14:43:01;4.85;;;4.25;;
45420;SDS011;55462;47.042;8.292;2023-04-06T14:45:27;4.35;;;3.95;;